Terminal Aerodrome Forecast
Issued by NWS Charleston, WV

Current Version | Previous Version | Text Only | Print | Product List | Glossary Off
Versions: 1 2 3 4 5 6 7 8 9 10 11 12 13 14 15 16 17 18 19 20 21 22 23 24 25

089
FTUS41 KRLX 211741
TAFEKN
TAF
KEKN 211741Z 2118/2218 36004KT P6SM SCT040
     FM220200 00000KT 6SM BR FEW250
     FM220300 00000KT 4SM BR FEW250
     FM220500 00000KT 1/4SM FG OVC001
     FM221300 00000KT 3SM BR BKN002
     FM221400 00000KT P6SM FEW040=

USA.gov is the U.S. government's official web portal to all federal, state and local government web resources and services.